Accueil
METAR-TAF:

METAR-TAF

Aéroports :

Resolute, Nunavut, Canada

latitude: 74-43N, longitude: 094-59W, altitude: 67 m

Observation

Le bulletin a été fait il y a 1 heure et 8 minutes, à 22:00 UTC
Vent 2 kt de direction variable
Température 1°C
Humidité 69%
Pression 1022 hPa
Visibilité: 24.1 km
Ciel clair

METAR: CYRB 272200Z VRB02KT 15SM SKC 01/M04 A3018 RMK SLP228

Heure: 18:08 (23:08 UTC)

Prévision

Le bulletin a été fait il y a 5 heures et 27 minutes, à 17:41 UTC
Prévision valable du 27 à 18 UTC au 28 à 18 UTC
Vent 3 kt de direction variable
Visibilité: 10 km
Ciel clair
Evoluant progressivement
du 27 à 18 UTC au 27 à 20 UTC
Vent 8 kt de nord/nord-est

TAF: CYRB 271741Z 2718/2818 VRB03KT P6SM SKC BECMG 2718/2720 02008KT RMK NXT FCST BY 280000Z

Observations et prévisions météorologiques de plus de 4000 aéroports (messages METAR et TAF).

Les stations disponibles sont représentées par des disques jaunes et rouges sur la carte.

Passer la souris dessus pour voir le nom de la station.

Cliquer dessus pour voir les observations et prévisions météorologiques.

Pour changer de carte: cliquez sur les boutons verts avec une croix noire pour zoomer, sur le bouton vert avec un tiret pour effectuer un zoom arrière, ou sur les flèches vertes pour les cartes adjacentes.


METAR-TAF: